createdAt,value
2022-09-30T03:04:04.052Z,63.11
2022-09-30T03:06:30.533Z,63.17
2022-09-30T03:08:58.376Z,63.13
2022-09-30T03:11:28.230Z,63.49
2022-09-30T03:14:32.599Z,63.24
2022-09-30T03:17:21.599Z,63.19
2022-09-30T03:20:21.141Z,62.85
2022-09-30T03:23:09.841Z,63.11
2022-09-30T03:25:56.033Z,63.36
2022-09-30T03:28:51.772Z,63.08
2022-09-30T03:31:39.114Z,63.18
2022-09-30T03:34:08.225Z,63.12
2022-09-30T03:36:51.034Z,62.86
2022-09-30T03:39:36.080Z,63.15
2022-09-30T03:42:22.755Z,62.95
2022-09-30T03:45:13.989Z,63.61
2022-09-30T03:47:46.203Z,63.67
2022-09-30T03:50:17.253Z,63.55
2022-09-30T03:52:43.709Z,63.19
2022-09-30T03:55:11.686Z,63.17
2022-09-30T03:57:38.532Z,63.49
2022-09-30T04:00:07.102Z,63.77
2022-09-30T04:02:37.495Z,63.97
2022-09-30T04:05:05.499Z,63.57
2022-09-30T04:07:32.478Z,63.84
2022-09-30T04:09:59.069Z,63.31
2022-09-30T04:12:25.811Z,64.12
2022-09-30T04:14:52.326Z,64.59
2022-09-30T04:17:18.786Z,64.58
2022-09-30T04:19:45.298Z,64.08
2022-09-30T04:22:11.744Z,63.59
2022-09-30T04:24:39.414Z,63.59
2022-09-30T04:27:05.941Z,64.03
2022-09-30T04:29:32.384Z,63.90
2022-09-30T04:31:58.890Z,63.86
2022-09-30T04:34:25.601Z,63.97
2022-09-30T04:36:52.019Z,63.87
2022-09-30T04:39:18.469Z,63.77
2022-09-30T04:41:44.946Z,63.84
2022-09-30T04:44:11.951Z,63.82
2022-09-30T04:46:38.362Z,63.93
2022-09-30T04:49:09.094Z,63.55
2022-09-30T04:51:38.292Z,63.99
2022-09-30T04:54:04.804Z,63.85
2022-09-30T04:56:31.352Z,64.09
2022-09-30T04:58:57.821Z,64.21
2022-09-30T05:01:24.486Z,64.08
2022-09-30T05:03:51.017Z,64.04
2022-09-30T05:06:17.556Z,64.61
2022-09-30T05:08:46.138Z,64.07
2022-09-30T05:11:18.828Z,64.15
2022-09-30T05:13:45.615Z,64.11
2022-09-30T05:16:13.046Z,64.01
2022-09-30T05:18:42.034Z,63.98
2022-09-30T05:21:08.547Z,63.98
2022-09-30T05:23:35.044Z,64.38
2022-09-30T05:26:03.428Z,64.06
2022-09-30T05:28:31.398Z,63.96
2022-09-30T05:31:00.108Z,64.19
2022-09-30T05:33:29.488Z,63.88
2022-09-30T05:35:59.510Z,63.75
2022-09-30T05:38:25.931Z,63.58
2022-09-30T05:40:52.725Z,63.59
2022-09-30T05:43:19.347Z,64.01
2022-09-30T05:45:54.169Z,64.05
2022-09-30T05:48:20.715Z,63.79
2022-09-30T05:50:50.482Z,63.64
2022-09-30T05:53:20.053Z,63.95
2022-09-30T05:55:47.507Z,65.50
2022-09-30T05:58:17.570Z,65.02
2022-09-30T06:00:46.451Z,65.58
2022-09-30T06:03:13.871Z,65.35
2022-09-30T06:05:40.927Z,65.07
2022-09-30T06:08:07.858Z,65.53
2022-09-30T06:10:35.605Z,64.25
2022-09-30T06:13:05.465Z,63.97
2022-09-30T06:15:32.561Z,63.56
2022-09-30T06:17:58.989Z,63.48
2022-09-30T06:20:25.729Z,63.10
2022-09-30T06:22:52.305Z,63.19
2022-09-30T06:25:18.821Z,63.32
2022-09-30T06:27:48.704Z,62.86
2022-09-30T06:30:15.253Z,62.69
2022-09-30T06:32:42.542Z,63.03
2022-09-30T06:35:10.200Z,62.36
2022-09-30T06:37:39.346Z,62.26
2022-09-30T06:40:06.555Z,62.19
2022-09-30T06:42:33.208Z,62.31
2022-09-30T06:44:59.712Z,61.86
2022-09-30T06:47:26.655Z,60.14
2022-09-30T06:49:58.365Z,59.82
2022-09-30T06:52:26.292Z,58.85
2022-09-30T06:54:52.993Z,57.18
2022-09-30T06:57:22.510Z,55.01
2022-09-30T06:59:50.233Z,54.45
2022-09-30T07:02:17.119Z,53.35
2022-09-30T07:04:43.724Z,52.62
2022-09-30T07:07:10.708Z,51.75
2022-09-30T07:09:37.183Z,50.06
2022-09-30T07:12:04.709Z,48.55
2022-09-30T07:14:31.975Z,47.62
2022-09-30T07:16:58.540Z,45.81
2022-09-30T07:19:25.036Z,45.01
2022-09-30T07:21:51.561Z,44.17
2022-09-30T07:24:18.375Z,43.04
2022-09-30T07:26:45.383Z,43.44
2022-09-30T07:29:13.837Z,43.46
2022-09-30T07:31:41.001Z,43.63
2022-09-30T07:34:09.297Z,43.58
2022-09-30T07:36:39.061Z,43.90
2022-09-30T07:39:08.380Z,43.09
2022-09-30T07:41:38.870Z,42.48
2022-09-30T07:44:07.827Z,44.56
2022-09-30T07:46:38.602Z,42.19
2022-09-30T07:49:08.387Z,42.66
2022-09-30T07:51:37.470Z,40.46
2022-09-30T07:54:07.706Z,40.42
2022-09-30T07:56:58.166Z,41.59
2022-09-30T07:59:27.147Z,41.05
2022-09-30T08:01:54.071Z,39.90
2022-09-30T08:04:22.128Z,40.23
2022-09-30T08:06:51.788Z,38.75
2022-09-30T08:09:21.083Z,39.55
2022-09-30T08:11:48.108Z,38.45
2022-09-30T08:14:17.238Z,38.20
2022-09-30T08:16:43.954Z,38.04
2022-09-30T08:19:16.170Z,38.31
2022-09-30T08:21:43.425Z,38.05
2022-09-30T08:24:11.635Z,38.96
2022-09-30T08:26:38.695Z,38.52
2022-09-30T08:29:05.855Z,37.25
2022-09-30T08:31:33.352Z,37.84
2022-09-30T08:34:00.647Z,38.89
2022-09-30T08:36:27.835Z,38.56
2022-09-30T08:38:54.684Z,38.94
2022-09-30T08:41:39.257Z,38.01
2022-09-30T08:44:24.108Z,37.12
2022-09-30T08:47:08.185Z,36.28
2022-09-30T08:49:34.552Z,38.46
2022-09-30T08:52:02.639Z,37.24
2022-09-30T08:54:37.807Z,36.58
2022-09-30T08:57:06.601Z,38.33
2022-09-30T08:59:38.190Z,38.00
2022-09-30T09:02:12.969Z,36.99
2022-09-30T09:04:43.565Z,36.57
2022-09-30T09:07:23.868Z,36.70
2022-09-30T09:10:11.825Z,36.97
2022-09-30T09:12:56.349Z,35.11
2022-09-30T09:15:28.715Z,34.89
2022-09-30T09:18:26.580Z,33.75
2022-09-30T09:21:09.344Z,36.82
2022-09-30T09:23:36.347Z,34.81
2022-09-30T09:26:04.644Z,33.28
2022-09-30T09:28:35.425Z,32.88
2022-09-30T09:31:03.016Z,34.84
2022-09-30T09:33:32.035Z,34.08
2022-09-30T09:36:01.243Z,31.93
2022-09-30T09:38:36.009Z,31.09
2022-09-30T09:41:17.665Z,32.76
2022-09-30T09:43:51.638Z,34.07
2022-09-30T09:46:41.199Z,32.91
2022-09-30T09:49:13.435Z,32.88
2022-09-30T09:51:48.227Z,31.98
2022-09-30T09:54:20.031Z,31.92
2022-09-30T09:56:46.422Z,31.17
2022-09-30T09:59:19.847Z,31.68
2022-09-30T10:01:54.206Z,30.62
2022-09-30T10:04:27.565Z,29.71
2022-09-30T10:06:57.786Z,30.42
2022-09-30T10:09:39.182Z,30.42
2022-09-30T10:12:05.554Z,31.92
2022-09-30T10:14:49.933Z,32.55
2022-09-30T10:17:29.426Z,30.60
2022-09-30T10:20:01.137Z,31.83
2022-09-30T10:22:30.562Z,31.84
2022-09-30T10:25:18.065Z,31.86
2022-09-30T10:27:50.932Z,31.48
2022-09-30T10:30:31.930Z,31.96
2022-09-30T10:32:59.289Z,32.63
2022-09-30T10:35:25.736Z,32.55
2022-09-30T10:37:54.404Z,32.17
2022-09-30T10:40:27.512Z,33.13
2022-09-30T10:42:55.338Z,32.18
2022-09-30T10:45:25.578Z,31.20
2022-09-30T10:47:55.459Z,31.75
2022-09-30T10:50:27.697Z,33.01
2022-09-30T10:53:01.709Z,32.28
2022-09-30T10:55:41.558Z,31.80
2022-09-30T10:58:22.307Z,33.47
2022-09-30T11:01:16.810Z,31.75
2022-09-30T11:03:54.088Z,33.41
2022-09-30T11:06:22.549Z,32.86
2022-09-30T11:08:52.541Z,30.01
2022-09-30T11:11:27.920Z,28.83
2022-09-30T11:13:55.625Z,28.66
2022-09-30T11:16:49.184Z,32.69
2022-09-30T11:19:39.845Z,32.93
2022-09-30T11:22:38.587Z,31.35
2022-09-30T11:25:10.860Z,32.11
2022-09-30T11:27:38.142Z,31.36
2022-09-30T11:30:17.605Z,31.30
2022-09-30T11:33:00.074Z,29.65
2022-09-30T11:36:01.802Z,29.87
2022-09-30T11:38:43.433Z,28.72
2022-09-30T11:41:18.682Z,31.27
2022-09-30T11:44:03.393Z,29.46
2022-09-30T11:47:02.145Z,26.10
2022-09-30T11:49:34.442Z,25.34
2022-09-30T11:52:15.806Z,23.88
2022-09-30T11:54:52.675Z,23.31
2022-09-30T11:57:21.409Z,21.62
2022-09-30T11:59:59.873Z,20.99
2022-09-30T12:02:33.693Z,22.17
2022-09-30T12:05:13.028Z,20.94
2022-09-30T12:07:45.035Z,21.22
2022-09-30T12:10:27.629Z,23.75
2022-09-30T12:13:00.118Z,23.17
2022-09-30T12:15:27.610Z,23.91
2022-09-30T12:18:09.562Z,24.69
2022-09-30T12:20:51.789Z,26.90
2022-09-30T12:23:20.995Z,29.89
2022-09-30T12:25:54.742Z,29.63
2022-09-30T12:28:55.209Z,29.80
2022-09-30T12:32:01.399Z,28.79
2022-09-30T12:34:55.361Z,27.19
2022-09-30T12:37:31.001Z,26.87
2022-09-30T12:40:25.299Z,24.91
2022-09-30T12:42:59.546Z,23.13
2022-09-30T12:46:02.892Z,22.10
2022-09-30T12:48:44.033Z,22.95
2022-09-30T12:51:20.763Z,23.77
2022-09-30T12:53:51.564Z,24.83
2022-09-30T12:56:18.832Z,26.28
2022-09-30T12:58:49.601Z,28.65
2022-09-30T13:01:23.407Z,28.62
2022-09-30T13:04:16.665Z,29.08
2022-09-30T13:06:46.094Z,29.96
2022-09-30T13:09:31.254Z,31.17
2022-09-30T13:11:57.659Z,32.19
2022-09-30T13:14:43.400Z,32.68
2022-09-30T13:17:13.001Z,32.07
2022-09-30T13:19:40.920Z,32.45
2022-09-30T13:22:39.742Z,32.31
2022-09-30T13:25:14.021Z,33.34
2022-09-30T13:28:14.100Z,32.98
2022-09-30T13:30:40.624Z,32.64
2022-09-30T13:33:28.803Z,33.37
2022-09-30T13:35:58.842Z,33.86
2022-09-30T13:38:40.393Z,32.70
2022-09-30T13:41:15.695Z,32.90
2022-09-30T13:43:56.495Z,32.46
2022-09-30T13:46:30.212Z,32.42
2022-09-30T13:49:34.061Z,31.96
2022-09-30T13:52:02.342Z,32.93
2022-09-30T13:54:36.395Z,32.84
2022-09-30T13:57:06.586Z,32.79
2022-09-30T14:00:00.194Z,33.54
2022-09-30T14:02:43.163Z,33.61
2022-09-30T14:05:39.765Z,33.33
2022-09-30T14:08:21.343Z,33.25
2022-09-30T14:11:09.310Z,33.05
2022-09-30T14:14:12.537Z,33.24
2022-09-30T14:16:53.844Z,32.68
2022-09-30T14:19:32.373Z,32.84
2022-09-30T14:22:05.031Z,32.56
2022-09-30T14:24:37.826Z,32.89
2022-09-30T14:27:29.522Z,33.06
2022-09-30T14:30:16.825Z,32.63
2022-09-30T14:32:59.409Z,34.12
2022-09-30T14:35:29.483Z,33.75
2022-09-30T14:38:05.470Z,34.34
2022-09-30T14:40:40.135Z,34.23
2022-09-30T14:43:12.871Z,34.14
2022-09-30T14:45:43.110Z,34.08
2022-09-30T14:48:15.596Z,34.08
2022-09-30T14:50:48.415Z,34.28
2022-09-30T14:53:35.489Z,34.18
2022-09-30T14:56:06.707Z,34.49
2022-09-30T14:58:42.426Z,34.11
2022-09-30T15:01:17.452Z,34.48
2022-09-30T15:03:47.802Z,34.35
2022-09-30T15:06:20.665Z,34.44
2022-09-30T15:08:49.393Z,34.44
2022-09-30T15:11:21.539Z,34.45
2022-09-30T15:13:51.748Z,34.58
2022-09-30T15:16:25.992Z,34.33
2022-09-30T15:18:53.879Z,34.21
2022-09-30T15:21:22.237Z,34.58
2022-09-30T15:23:52.248Z,34.85
2022-09-30T15:26:21.383Z,34.09
2022-09-30T15:28:47.970Z,34.06
2022-09-30T15:31:29.126Z,33.73
2022-09-30T15:34:12.782Z,34.57
2022-09-30T15:36:39.606Z,34.76
2022-09-30T15:39:17.061Z,34.98
2022-09-30T15:41:43.590Z,35.55
2022-09-30T15:44:19.378Z,35.61
2022-09-30T15:47:03.073Z,35.83
2022-09-30T15:49:32.509Z,35.91
2022-09-30T15:52:30.478Z,36.11
2022-09-30T15:54:57.737Z,35.93
2022-09-30T15:57:45.844Z,36.50
2022-09-30T16:00:47.939Z,36.11
2022-09-30T16:03:26.548Z,36.75
2022-09-30T16:05:54.879Z,36.29
2022-09-30T16:08:25.517Z,36.78
2022-09-30T16:10:53.984Z,37.26
2022-09-30T16:13:29.918Z,37.37
2022-09-30T16:15:58.329Z,37.76
2022-09-30T16:18:34.068Z,37.86
2022-09-30T16:21:04.959Z,38.43
2022-09-30T16:23:42.272Z,38.36
2022-09-30T16:26:20.683Z,38.75
2022-09-30T16:28:47.641Z,38.48
2022-09-30T16:31:15.342Z,38.64
2022-09-30T16:33:44.209Z,39.25
2022-09-30T16:36:11.952Z,38.77
2022-09-30T16:38:38.726Z,39.26
2022-09-30T16:41:05.425Z,39.46
2022-09-30T16:43:32.205Z,39.69
2022-09-30T16:45:59.816Z,39.63
2022-09-30T16:48:27.208Z,40.26
2022-09-30T16:51:15.690Z,40.09
2022-09-30T16:53:43.092Z,40.26
2022-09-30T16:56:17.248Z,40.67
2022-09-30T16:58:47.046Z,40.83
2022-09-30T17:01:24.269Z,41.29
2022-09-30T17:03:52.492Z,40.91
2022-09-30T17:06:21.011Z,41.78
2022-09-30T17:08:50.268Z,41.31
2022-09-30T17:11:16.689Z,42.01
2022-09-30T17:13:43.477Z,42.17
2022-09-30T17:16:09.989Z,42.55
2022-09-30T17:18:36.459Z,42.96
2022-09-30T17:21:03.371Z,42.94
2022-09-30T17:23:29.927Z,43.21
2022-09-30T17:25:56.412Z,43.29
2022-09-30T17:28:23.753Z,43.66
2022-09-30T17:30:50.472Z,43.83
2022-09-30T17:33:19.741Z,44.11
2022-09-30T17:35:59.296Z,44.64
2022-09-30T17:38:25.970Z,44.42
2022-09-30T17:41:10.970Z,44.48
2022-09-30T17:43:37.520Z,45.25
2022-09-30T17:46:04.047Z,45.40
2022-09-30T17:48:31.024Z,45.72
2022-09-30T17:50:57.463Z,45.65
2022-09-30T17:53:24.148Z,46.38
2022-09-30T17:56:04.555Z,46.69
2022-09-30T17:58:31.007Z,46.44
2022-09-30T18:00:59.380Z,47.43
2022-09-30T18:03:28.130Z,47.65
2022-09-30T18:05:58.815Z,47.57
2022-09-30T18:08:26.103Z,47.46
2022-09-30T18:10:53.463Z,46.85
2022-09-30T18:13:19.969Z,46.61
2022-09-30T18:15:46.719Z,46.89
2022-09-30T18:18:13.816Z,46.68
2022-09-30T18:20:44.963Z,46.99
2022-09-30T18:23:12.120Z,47.50
2022-09-30T18:25:39.549Z,47.74
2022-09-30T18:28:08.723Z,47.49
2022-09-30T18:30:39.344Z,47.07
2022-09-30T18:33:07.288Z,47.09
2022-09-30T18:35:39.082Z,47.35
2022-09-30T18:38:06.806Z,47.54
2022-09-30T18:40:33.803Z,47.63
2022-09-30T18:43:02.805Z,47.76
2022-09-30T18:45:30.912Z,47.73
2022-09-30T18:48:00.307Z,48.12
2022-09-30T18:50:28.600Z,48.17
2022-09-30T18:52:55.392Z,48.51
2022-09-30T18:55:22.465Z,48.94
2022-09-30T18:57:50.154Z,49.40
2022-09-30T19:00:18.062Z,49.60
2022-09-30T19:02:44.718Z,50.23
2022-09-30T19:05:13.370Z,50.70
2022-09-30T19:07:39.898Z,50.45
2022-09-30T19:10:08.426Z,50.18
2022-09-30T19:12:36.540Z,50.04
2022-09-30T19:15:05.176Z,50.18
2022-09-30T19:17:33.053Z,50.06
2022-09-30T19:20:00.602Z,49.86
2022-09-30T19:22:28.232Z,50.11
2022-09-30T19:24:54.885Z,49.98
2022-09-30T19:27:26.207Z,50.23
2022-09-30T19:29:57.252Z,49.88
2022-09-30T19:32:26.477Z,50.31
2022-09-30T19:35:03.942Z,50.03
2022-09-30T19:37:31.781Z,49.98
2022-09-30T19:40:00.322Z,49.98
2022-09-30T19:42:29.766Z,49.67
2022-09-30T19:44:56.198Z,50.06
2022-09-30T19:47:22.605Z,50.48
2022-09-30T19:49:49.202Z,50.10
2022-09-30T19:52:21.974Z,50.30
2022-09-30T19:54:50.697Z,49.99
2022-09-30T19:57:17.131Z,50.73
2022-09-30T19:59:43.782Z,50.71
2022-09-30T20:02:11.526Z,50.60
2022-09-30T20:04:39.578Z,50.46
2022-09-30T20:07:05.998Z,50.43
2022-09-30T20:09:32.462Z,51.18
2022-09-30T20:11:58.922Z,50.89
2022-09-30T20:14:43.873Z,51.04
2022-09-30T20:17:12.065Z,51.50
2022-09-30T20:19:38.510Z,51.31
2022-09-30T20:22:05.333Z,51.20
2022-09-30T20:24:31.949Z,51.31
2022-09-30T20:26:58.339Z,51.56
2022-09-30T20:29:24.781Z,51.58
2022-09-30T20:31:51.374Z,51.66
2022-09-30T20:34:18.865Z,51.80
2022-09-30T20:36:45.418Z,51.69
2022-09-30T20:39:12.682Z,52.10
2022-09-30T20:41:39.954Z,52.16
2022-09-30T20:44:12.007Z,52.17
2022-09-30T20:46:41.427Z,52.56
2022-09-30T20:49:08.023Z,52.80
2022-09-30T20:51:34.909Z,52.81
2022-09-30T20:54:01.610Z,52.57
2022-09-30T20:56:39.338Z,52.81
2022-09-30T20:59:17.066Z,52.65
2022-09-30T21:01:43.529Z,52.81
2022-09-30T21:04:10.063Z,52.74
2022-09-30T21:06:36.517Z,53.29
2022-09-30T21:09:03.672Z,53.17
2022-09-30T21:11:30.427Z,52.83
2022-09-30T21:13:57.501Z,53.01
2022-09-30T21:16:25.357Z,52.94
2022-09-30T21:18:53.177Z,53.72
2022-09-30T21:21:21.407Z,53.38
2022-09-30T21:23:48.061Z,53.71
2022-09-30T21:26:17.202Z,53.74
2022-09-30T21:28:49.327Z,53.96
2022-09-30T21:31:26.504Z,54.01
2022-09-30T21:33:56.337Z,54.50
2022-09-30T21:36:23.310Z,53.83
2022-09-30T21:38:50.250Z,53.91
2022-09-30T21:41:17.827Z,54.70
2022-09-30T21:43:44.393Z,54.24
2022-09-30T21:46:12.758Z,54.22
2022-09-30T21:48:39.598Z,54.09
2022-09-30T21:51:07.129Z,54.17
2022-09-30T21:53:34.281Z,54.62
2022-09-30T21:56:02.383Z,54.97
2022-09-30T21:58:31.668Z,54.31
